Time;durP1;ratioP1;P1;durP2;ratioP2;P2;SDS_P1;SDS_P2;PMS_P1;PMS_P2;Temp;Humidity;BMP_temperature;BMP_pressure;BME280_temperature;BME280_humidity;BME280_pressure;Samples;Min_cycle;Max_cycle;Signal;HPM_P1;HPM_P2
2022/09/02 00:01:28;;;;;;;0.00;0.00;;;;;;;20.13;82.01;98553.13;5065577;28;20048;-76
2022/09/02 00:03:58;;;;;;;0.00;0.00;;;;;;;20.10;82.30;98556.06;5066367;28;20041;-76
2022/09/02 00:06:26;;;;;;;0.00;0.00;;;;;;;20.09;82.28;98554.41;5066911;28;20132;-76
2022/09/02 00:08:54;;;;;;;0.00;0.00;;;;;;;20.13;82.17;98557.59;5060203;28;20135;-77
2022/09/02 00:11:26;;;;;;;0.00;0.00;;;;;;;20.11;82.17;98555.06;5063645;28;20088;-76
2022/09/02 00:13:57;;;;;;;0.00;0.00;;;;;;;20.11;82.17;98560.41;5064336;28;20072;-76
2022/09/02 00:16:26;;;;;;;0.00;0.00;;;;;;;20.16;81.95;98551.97;5064054;28;20044;-76
2022/09/02 00:18:55;;;;;;;0.00;0.00;;;;;;;20.16;81.71;98542.09;5066766;28;20032;-76
2022/09/02 00:21:23;;;;;;;0.00;0.00;;;;;;;20.14;81.96;98553.94;5066717;28;20062;-76
2022/09/02 00:23:50;;;;;;;0.00;0.00;;;;;;;20.16;81.64;98551.97;5049686;28;20487;-77
2022/09/02 00:26:18;;;;;;;0.00;0.00;;;;;;;20.14;81.73;98549.44;5069327;28;20514;-76
2022/09/02 00:28:47;;;;;;;0.00;0.00;;;;;;;20.11;81.82;98549.72;5074440;28;20135;-76
2022/09/02 00:31:15;;;;;;;0.00;0.00;;;;;;;20.11;81.74;98548.88;5067671;28;20044;-77
2022/09/02 00:33:43;;;;;;;0.00;0.00;;;;;;;20.10;81.93;98541.84;5068887;28;20161;-77
2022/09/02 00:36:11;;;;;;;0.00;0.00;;;;;;;20.15;81.51;98548.44;5068138;28;20053;-76
2022/09/02 00:38:40;;;;;;;0.00;0.00;;;;;;;20.10;81.86;98544.53;5068774;28;20095;-76
2022/09/02 00:41:09;;;;;;;0.00;0.00;;;;;;;20.07;81.92;98543.00;5069148;28;20118;-76
2022/09/02 00:43:46;;;;;;;0.00;0.00;;;;;;;20.04;81.77;98540.59;5069913;28;20036;-77
2022/09/02 00:46:18;;;;;;;0.00;0.00;;;;;;;19.99;82.16;98540.22;5066889;28;20057;-77
2022/09/02 00:48:50;;;;;;;0.00;0.00;;;;;;;20.04;81.85;98543.28;5069474;28;20529;-76
2022/09/02 00:51:17;;;;;;;0.00;0.00;;;;;;;20.05;81.75;98538.78;5070484;28;20040;-76
2022/09/02 00:53:48;;;;;;;0.00;0.00;;;;;;;20.07;81.75;98543.00;5067896;28;20504;-76
2022/09/02 00:56:21;;;;;;;0.00;0.00;;;;;;;20.03;81.83;98536.25;5069725;28;20059;-76
2022/09/02 00:58:50;;;;;;;0.00;0.00;;;;;;;20.02;81.88;98539.94;5052018;28;20033;-76
2022/09/02 01:01:21;;;;;;;0.00;0.00;;;;;;;20.02;81.95;98537.25;5067797;28;20040;-76
2022/09/02 01:03:49;;;;;;;0.00;0.00;;;;;;;20.04;81.68;98535.25;5068575;28;20058;-76
2022/09/02 01:06:23;;;;;;;0.00;0.00;;;;;;;19.98;81.77;98535.88;5052005;28;20487;-76
2022/09/02 01:08:57;;;;;;;0.00;0.00;;;;;;;20.04;81.51;98535.25;5066911;28;20090;-77
2022/09/02 01:11:31;;;;;;;0.00;0.00;;;;;;;19.99;81.82;98534.00;5068986;28;20041;-76
2022/09/02 01:14:00;;;;;;;0.00;0.00;;;;;;;19.99;81.77;98528.66;5062424;28;20488;-77
2022/09/02 01:16:34;;;;;;;0.00;0.00;;;;;;;20.02;81.63;98537.25;5065628;28;20048;-76
2022/09/02 01:19:06;;;;;;;0.00;0.00;;;;;;;19.99;81.77;98534.00;5068902;28;20033;-76
2022/09/02 01:21:34;;;;;;;0.00;0.00;;;;;;;19.99;81.76;98536.69;5068326;28;20329;-76
2022/09/02 01:24:05;;;;;;;0.00;0.00;;;;;;;19.99;81.59;98539.34;5069784;28;20059;-76
2022/09/02 01:26:32;;;;;;;0.00;0.00;;;;;;;20.01;81.56;98535.56;5067777;28;20506;-76
2022/09/02 01:29:00;;;;;;;0.00;0.00;;;;;;;19.93;81.69;98535.44;5065971;28;20040;-77
2022/09/02 01:31:27;;;;;;;0.00;0.00;;;;;;;19.96;81.75;98539.66;5050684;28;20064;-76
2022/09/02 01:33:56;;;;;;;0.00;0.00;;;;;;;19.95;81.74;98530.81;5068459;28;20067;-76
2022/09/02 01:36:24;;;;;;;0.00;0.00;;;;;;;19.95;81.88;98538.81;5068299;28;20075;-77
2022/09/02 01:38:52;;;;;;;0.00;0.00;;;;;;;19.93;81.71;98535.44;5067091;28;20029;-76
2022/09/02 01:41:21;;;;;;;0.00;0.00;;;;;;;19.94;81.67;98530.94;5069804;28;20043;-76
2022/09/02 01:43:48;;;;;;;0.00;0.00;;;;;;;19.93;81.74;98534.63;5051406;28;20052;-76
2022/09/02 01:46:16;;;;;;;0.00;0.00;;;;;;;19.93;81.75;98530.09;5067564;28;20036;-76
2022/09/02 01:48:44;;;;;;;0.00;0.00;;;;;;;19.92;81.67;98532.91;5068716;28;20044;-76
2022/09/02 01:51:17;;;;;;;0.00;0.00;;;;;;;19.94;81.80;98529.09;5068116;28;20379;-76
2022/09/02 01:53:47;;;;;;;0.00;0.00;;;;;;;19.89;81.70;98527.84;5066509;28;20136;-77
2022/09/02 01:56:17;;;;;;;0.00;0.00;;;;;;;19.92;81.70;98533.75;5067255;28;20044;-76
2022/09/02 01:58:46;;;;;;;0.00;0.00;;;;;;;19.90;81.67;98529.56;5068466;28;20041;-77
2022/09/02 02:01:14;;;;;;;0.00;0.00;;;;;;;19.94;81.34;98525.59;5060474;28;20051;-76
2022/09/02 02:03:42;;;;;;;0.00;0.00;;;;;;;19.88;81.54;98523.50;5067402;28;20040;-76
2022/09/02 02:06:11;;;;;;;0.00;0.00;;;;;;;19.95;81.29;98525.47;5069225;28;20067;-76
2022/09/02 02:08:41;;;;;;;0.00;0.00;;;;;;;19.89;81.37;98528.69;5076892;28;20083;-76
2022/09/02 02:11:09;;;;;;;0.00;0.00;;;;;;;19.87;81.56;98533.38;5066652;28;20047;-76
2022/09/02 02:13:37;;;;;;;0.00;0.00;;;;;;;19.87;81.58;98525.34;5068901;28;20078;-76
2022/09/02 02:16:06;;;;;;;0.00;0.00;;;;;;;19.86;81.46;98520.16;5065174;28;20097;-77
2022/09/02 02:18:34;;;;;;;0.00;0.00;;;;;;;19.87;81.62;98524.50;5068642;28;20052;-76
2022/09/02 02:21:01;;;;;;;0.00;0.00;;;;;;;19.82;81.59;98529.44;5068662;28;20041;-76
2022/09/02 02:23:29;;;;;;;0.00;0.00;;;;;;;19.89;81.32;98526.03;5065649;28;20053;-77
2022/09/02 02:25:56;;;;;;;0.00;0.00;;;;;;;19.86;81.40;98523.66;5068998;28;20808;-76
2022/09/02 02:28:24;;;;;;;0.00;0.00;;;;;;;19.92;81.05;98528.41;5069528;28;20534;-76
2022/09/02 02:30:53;;;;;;;0.00;0.00;;;;;;;19.88;81.18;98516.34;5068552;28;20040;-76
2022/09/02 02:33:22;;;;;;;0.00;0.00;;;;;;;19.86;81.33;98518.31;5067701;28;20123;-76
2022/09/02 02:35:50;;;;;;;0.00;0.00;;;;;;;19.88;81.10;98515.50;5068312;28;20064;-76
2022/09/02 02:38:18;;;;;;;0.00;0.00;;;;;;;19.86;81.24;98510.28;5079476;28;20048;-76
2022/09/02 02:40:45;;;;;;;0.00;0.00;;;;;;;19.84;81.32;98514.94;5076650;28;20044;-76
2022/09/02 02:43:13;;;;;;;0.00;0.00;;;;;;;19.82;81.27;98514.25;5080964;28;20054;-76
2022/09/02 02:45:40;;;;;;;0.00;0.00;;;;;;;19.81;81.37;98512.56;5068283;28;20124;-76
2022/09/02 02:48:08;;;;;;;0.00;0.00;;;;;;;19.82;81.09;98522.25;5066078;28;20148;-77
2022/09/02 02:50:37;;;;;;;0.00;0.00;;;;;;;19.81;81.41;98517.91;5068155;28;20045;-76
2022/09/02 02:53:04;;;;;;;0.00;0.00;;;;;;;19.83;81.20;98512.41;5069123;28;20064;-76
2022/09/02 02:55:32;;;;;;;0.00;0.00;;;;;;;19.80;81.07;98518.03;5067213;28;20040;-76
2022/09/02 02:58:00;;;;;;;0.00;0.00;;;;;;;19.81;81.22;98517.91;5067233;28;20037;-76
2022/09/02 03:00:30;;;;;;;0.00;0.00;;;;;;;19.76;81.45;98509.50;5067535;28;20053;-76
2022/09/02 03:02:59;;;;;;;0.00;0.00;;;;;;;19.82;81.01;98513.41;5065605;28;20621;-77
2022/09/02 03:05:28;;;;;;;0.00;0.00;;;;;;;19.72;81.57;98505.41;5066788;28;20122;-76
2022/09/02 03:07:59;;;;;;;0.00;0.00;;;;;;;19.83;80.82;98518.59;5076688;28;20064;-76
2022/09/02 03:10:27;;;;;;;0.00;0.00;;;;;;;19.74;81.26;98519.47;5066735;28;20047;-76
2022/09/02 03:12:55;;;;;;;0.00;0.00;;;;;;;19.75;81.17;98515.81;5065162;28;20434;-76
2022/09/02 03:15:23;;;;;;;0.00;0.00;;;;;;;19.77;81.15;98521.84;5066698;28;20032;-76
2022/09/02 03:17:54;;;;;;;0.00;0.00;;;;;;;19.80;81.18;98512.69;5051241;28;20141;-77
2022/09/02 03:20:24;;;;;;;0.00;0.00;;;;;;;19.79;80.94;98511.84;5049407;28;20052;-77
2022/09/02 03:22:57;;;;;;;0.00;0.00;;;;;;;19.75;81.11;98518.47;5067084;28;20037;-77
2022/09/02 03:25:30;;;;;;;0.00;0.00;;;;;;;19.75;81.04;98513.13;5050975;28;20044;-77
2022/09/02 03:27:58;;;;;;;0.00;0.00;;;;;;;19.68;81.22;98517.34;5051019;28;20040;-76
2022/09/02 03:30:28;;;;;;;0.00;0.00;;;;;;;19.76;80.82;98506.81;5050724;28;20048;-76
2022/09/02 03:32:58;;;;;;;0.00;0.00;;;;;;;19.69;80.78;98507.53;5050463;28;20059;-77
2022/09/02 03:35:29;;;;;;;0.00;0.00;;;;;;;19.71;80.94;98510.91;5066725;28;20028;-77
2022/09/02 03:37:59;;;;;;;0.00;0.00;;;;;;;19.70;80.88;98504.72;5066972;28;20057;-77
2022/09/02 03:40:28;;;;;;;0.00;0.00;;;;;;;19.67;81.02;98507.66;5067200;28;20057;-77
2022/09/02 03:42:56;;;;;;;0.00;0.00;;;;;;;19.70;81.02;98506.53;5067528;28;20838;-77
2022/09/02 03:45:24;;;;;;;0.00;0.00;;;;;;;19.67;81.00;98507.66;5068795;28;20529;-77
2022/09/02 03:47:53;;;;;;;0.00;0.00;;;;;;;19.71;80.80;98511.72;5068565;28;20072;-77
2022/09/02 03:50:26;;;;;;;0.00;0.00;;;;;;;19.66;81.02;98514.00;5066645;28;20144;-77
2022/09/02 03:52:55;;;;;;;0.00;0.00;;;;;;;19.67;80.83;98513.00;5067198;28;20036;-77
2022/09/02 03:55:23;;;;;;;0.00;0.00;;;;;;;19.66;80.74;98511.34;5068362;28;20131;-77
2022/09/02 03:57:52;;;;;;;0.00;0.00;;;;;;;19.69;80.66;98516.41;5067487;28;20514;-77
2022/09/02 04:00:23;;;;;;;0.00;0.00;;;;;;;19.66;80.75;98514.00;5071310;28;20468;-77
2022/09/02 04:02:53;;;;;;;0.00;0.00;;;;;;;19.73;80.42;98519.59;5070774;28;20029;-77
2022/09/02 04:05:21;;;;;;;0.00;0.00;;;;;;;19.67;80.72;98523.69;5057315;28;20683;-77
2022/09/02 04:07:54;;;;;;;0.00;0.00;;;;;;;19.67;80.67;98525.53;5070970;28;20036;-77
2022/09/02 04:10:21;;;;;;;0.00;0.00;;;;;;;19.69;80.35;98528.88;5069806;28;20464;-77
2022/09/02 04:12:50;;;;;;;0.00;0.00;;;;;;;19.65;80.52;98523.00;5070517;28;20032;-77
2022/09/02 04:15:20;;;;;;;0.00;0.00;;;;;;;19.65;80.44;98520.34;5071492;28;20036;-77
2022/09/02 04:17:50;;;;;;;0.00;0.00;;;;;;;19.66;80.35;98527.34;5070316;28;20471;-77
2022/09/02 04:20:21;;;;;;;0.00;0.00;;;;;;;19.69;80.32;98521.72;5070413;28;20052;-77
2022/09/02 04:22:49;;;;;;;0.00;0.00;;;;;;;19.67;80.25;98523.69;5054288;28;20098;-76
2022/09/02 04:25:18;;;;;;;0.00;0.00;;;;;;;19.67;80.31;98529.03;5070949;28;20495;-77
2022/09/02 04:27:47;;;;;;;0.00;0.00;;;;;;;19.65;80.25;98531.00;5070882;28;20055;-76
2022/09/02 04:30:16;;;;;;;0.00;0.00;;;;;;;19.68;80.21;98528.03;5054235;28;20063;-77
2022/09/02 04:32:46;;;;;;;0.00;0.00;;;;;;;19.67;80.20;98523.69;5052799;28;20488;-77
2022/09/02 04:35:14;;;;;;;0.00;0.00;;;;;;;19.63;80.18;98530.31;5069263;28;20045;-77
2022/09/02 04:37:43;;;;;;;0.00;0.00;;;;;;;19.66;80.03;98526.50;5070301;28;20060;-77
2022/09/02 04:40:11;;;;;;;0.00;0.00;;;;;;;19.69;80.03;98528.88;5070306;28;20044;-77
2022/09/02 04:42:38;;;;;;;0.00;0.00;;;;;;;19.64;80.23;98525.81;5052002;28;20492;-77
2022/09/02 04:45:08;;;;;;;0.00;0.00;;;;;;;19.63;80.13;98530.31;5050228;28;20106;-77
2022/09/02 04:47:39;;;;;;;0.00;0.00;;;;;;;19.64;80.07;98526.63;5063208;28;20042;-77
2022/09/02 04:50:09;;;;;;;0.00;0.00;;;;;;;19.58;80.22;98523.72;5068503;28;20071;-77
2022/09/02 04:52:38;;;;;;;0.00;0.00;;;;;;;19.63;80.11;98527.63;5072677;28;20052;-77
2022/09/02 04:55:07;;;;;;;0.00;0.00;;;;;;;19.66;79.82;98527.34;5070674;28;20518;-77
2022/09/02 04:57:35;;;;;;;0.00;0.00;;;;;;;19.65;79.86;98524.81;5051597;28;20044;-77
2022/09/02 05:00:05;;;;;;;0.00;0.00;;;;;;;19.65;79.83;98532.84;5051315;28;20153;-77
2022/09/02 05:02:33;;;;;;;0.00;0.00;;;;;;;19.65;79.72;98539.03;5065386;28;20098;-77
2022/09/02 05:05:01;;;;;;;0.00;0.00;;;;;;;19.64;79.61;98531.16;5080649;28;20496;-77
2022/09/02 05:07:37;;;;;;;0.00;0.00;;;;;;;19.64;79.60;98534.66;5057883;28;20051;-76
2022/09/02 05:10:06;;;;;;;0.00;0.00;;;;;;;19.62;79.73;98531.28;5076784;28;20124;-77
2022/09/02 05:12:39;;;;;;;0.00;0.00;;;;;;;19.66;79.67;98534.50;5079217;28;20049;-77
2022/09/02 05:15:08;;;;;;;0.00;0.00;;;;;;;19.63;79.56;98540.13;5077462;28;20148;-77
2022/09/02 05:17:36;;;;;;;0.00;0.00;;;;;;;19.62;79.57;98535.78;5063953;28;20037;-77
2022/09/02 05:20:06;;;;;;;0.00;0.00;;;;;;;19.69;79.39;98539.56;5065292;28;20499;-77
2022/09/02 05:22:33;;;;;;;0.00;0.00;;;;;;;19.63;79.55;98532.97;5067216;28;20098;-76
2022/09/02 05:25:06;;;;;;;0.00;0.00;;;;;;;19.63;79.65;98526.78;5069134;28;20033;-76
2022/09/02 05:27:37;;;;;;;0.00;0.00;;;;;;;19.66;79.47;98532.69;5067330;28;20587;-77
2022/09/02 05:30:09;;;;;;;0.00;0.00;;;;;;;19.62;79.50;98541.97;5067276;28;20812;-76
2022/09/02 05:32:36;;;;;;;0.00;0.00;;;;;;;19.63;79.41;98524.97;5085817;28;20119;-77
2022/09/02 05:35:05;;;;;;;0.00;0.00;;;;;;;19.60;79.46;98538.59;5048719;28;20059;-77
2022/09/02 05:37:35;;;;;;;0.00;0.00;;;;;;;19.60;79.43;98537.78;5067369;28;20525;-77
2022/09/02 05:40:06;;;;;;;0.00;0.00;;;;;;;19.62;79.40;98536.63;5066299;28;20064;-77
2022/09/02 05:42:35;;;;;;;0.00;0.00;;;;;;;19.63;79.32;98535.63;5064295;28;20047;-77
2022/09/02 05:45:04;;;;;;;0.00;0.00;;;;;;;19.60;79.50;98530.56;5064802;28;20033;-77
2022/09/02 05:47:34;;;;;;;0.00;0.00;;;;;;;19.65;79.32;98536.34;5076295;28;20529;-77
2022/09/02 05:50:02;;;;;;;0.00;0.00;;;;;;;19.62;79.29;98539.31;5063966;28;20047;-76
2022/09/02 05:52:33;;;;;;;0.00;0.00;;;;;;;19.59;79.37;98536.06;5049160;28;20040;-77
2022/09/02 05:55:02;;;;;;;0.00;0.00;;;;;;;19.62;79.21;98541.13;5074017;28;20102;-76
2022/09/02 05:57:34;;;;;;;0.00;0.00;;;;;;;19.58;79.47;98540.56;5064302;28;20127;-77
2022/09/02 06:00:06;;;;;;;0.00;0.00;;;;;;;19.63;79.06;98540.13;5062920;28;20301;-77
2022/09/02 06:02:43;;;;;;;0.00;0.00;;;;;;;19.60;79.35;98535.09;5080006;28;20717;-77
2022/09/02 06:05:18;;;;;;;0.00;0.00;;;;;;;19.63;79.13;98538.31;5064505;28;20049;-77
2022/09/02 06:07:53;;;;;;;0.00;0.00;;;;;;;19.66;79.02;98542.50;5063169;28;20088;-77
2022/09/02 06:10:22;;;;;;;0.00;0.00;;;;;;;19.66;78.96;98539.84;5064400;28;20040;-77
2022/09/02 06:12:52;;;;;;;0.00;0.00;;;;;;;19.62;79.11;98541.97;5080532;28;20065;-77
2022/09/02 06:15:22;;;;;;;0.00;0.00;;;;;;;19.57;79.10;98548.72;5064898;28;20411;-77
2022/09/02 06:17:50;;;;;;;0.00;0.00;;;;;;;19.61;79.12;98545.63;5064687;28;20471;-77
2022/09/02 06:20:18;;;;;;;0.00;0.00;;;;;;;19.57;79.23;98543.38;5062996;28;20036;-77
2022/09/02 06:22:45;;;;;;;0.00;0.00;;;;;;;19.64;78.92;98539.97;5063883;28;20123;-77
2022/09/02 06:25:13;;;;;;;0.00;0.00;;;;;;;19.67;78.50;98545.06;5062983;28;20035;-78
2022/09/02 06:27:41;;;;;;;0.00;0.00;;;;;;;19.72;78.20;98548.13;5065696;28;20491;-77
2022/09/02 06:30:12;;;;;;;0.00;0.00;;;;;;;19.65;78.45;98547.03;5066238;28;20044;-77
2022/09/02 06:32:42;;;;;;;0.00;0.00;;;;;;;19.69;78.27;98547.56;5059155;28;20329;-78
2022/09/02 06:35:12;;;;;;;0.00;0.00;;;;;;;19.76;78.11;98548.69;5068509;28;20037;-78
2022/09/02 06:37:40;;;;;;;0.00;0.00;;;;;;;19.69;78.29;98548.44;5068540;28;20049;-77
2022/09/02 06:40:10;;;;;;;0.00;0.00;;;;;;;19.65;78.46;98559.53;5065070;28;20037;-78
2022/09/02 06:42:38;;;;;;;0.00;0.00;;;;;;;19.60;78.76;98567.97;5066964;28;20075;-77
2022/09/02 06:45:27;;;;;;;0.00;0.00;;;;;;;19.63;78.65;98562.34;5075217;28;20053;-78
2022/09/02 06:47:59;;;;;;;0.00;0.00;;;;;;;19.63;78.83;98565.00;5077738;28;20047;-78
2022/09/02 06:50:28;;;;;;;0.00;0.00;;;;;;;19.63;79.08;98565.00;5082863;28;20594;-78
2022/09/02 06:52:56;;;;;;;0.00;0.00;;;;;;;19.56;79.50;98563.88;5071214;28;20169;-78
2022/09/02 06:55:24;;;;;;;0.00;0.00;;;;;;;19.62;79.67;98567.81;5075297;28;20060;-78
2022/09/02 06:57:52;;;;;;;0.00;0.00;;;;;;;19.60;79.99;98562.63;5081276;28;20468;-78
2022/09/02 07:00:20;;;;;;;0.00;0.00;;;;;;;19.65;79.93;98560.38;5081272;28;20093;-77
2022/09/02 07:05:08;;;;;;;0.00;0.00;;;;;;;19.61;80.31;98564.31;5052326;28;20052;-78
2022/09/02 07:05:38;;;;;;;0.00;0.00;;;;;;;19.59;81.16;98568.94;5076260;28;20044;-78
2022/09/02 07:08:06;;;;;;;0.00;0.00;;;;;;;19.55;81.86;98569.38;5075498;28;20036;-78
2022/09/02 07:10:38;;;;;;;0.00;0.00;;;;;;;19.54;82.78;98568.53;5073084;28;20051;-79
2022/09/02 07:13:09;;;;;;;0.55;0.55;;;;;;;21.78;89.35;98562.56;5015138;28;20044;-76
2022/09/02 07:15:36;;;;;;;0.00;0.00;;;;;;;22.04;74.99;98557.22;5005711;28;20041;-73
2022/09/02 07:18:06;;;;;;;0.00;0.00;;;;;;;22.20;72.93;98552.81;5055669;28;20029;-78
2022/09/02 07:38:58;;;;;;;126.77;117.50;;;;;;;22.35;77.05;98564.66;4898694;27;20429;-72
2022/09/02 07:41:26;;;;;;;285.57;268.47;;;;;;;21.88;77.10;98567.84;4797057;28;20518;-71
2022/09/02 07:43:54;;;;;;;195.77;186.50;;;;;;;22.19;75.60;98561.84;4982136;28;20148;-67
2022/09/02 07:46:25;;;;;;;184.13;175.57;;;;;;;21.96;75.92;98565.22;5059559;28;20373;-66
2022/09/02 07:48:52;;;;;;;139.27;132.93;;;;;;;21.67;77.01;98564.66;5059128;28;20389;-65
2022/09/02 07:51:20;;;;;;;119.60;114.07;;;;;;;21.73;76.69;98561.34;4963953;28;20290;-65
2022/09/02 07:53:50;;;;;;;114.10;108.93;;;;;;;21.71;76.42;98566.88;5016197;28;20340;-65
2022/09/02 07:56:19;;;;;;;114.10;108.83;;;;;;;21.69;75.95;98568.84;5062334;28;20357;-65
2022/09/02 07:58:47;;;;;;;105.57;100.73;;;;;;;21.67;75.89;98568.16;5061609;28;20323;-65
2022/09/02 08:01:15;;;;;;;92.47;88.37;;;;;;;21.70;75.66;98565.19;5063332;28;20818;-65
2022/09/02 08:03:44;;;;;;;98.20;93.67;;;;;;;21.78;74.88;98559.91;5062869;28;20282;-65
2022/09/02 08:07:22;;;;;;;103.93;99.27;;;;;;;21.65;75.95;98567.47;4758703;27;109253;-66
2022/09/02 08:09:50;;;;;;;87.33;83.50;;;;;;;21.83;75.81;98559.44;5037810;28;20287;-67
2022/09/02 08:13:13;;;;;;;152.27;144.57;;;;;;;14.32;78.66;98588.59;4708798;27;20394;-58
2022/09/02 08:15:41;;;;;;;145.07;137.87;;;;;;;13.33;81.44;98609.50;4971050;28;20324;-58
2022/09/02 08:18:09;;;;;;;140.73;133.73;;;;;;;14.01;81.11;98610.16;5020701;28;20716;-58
2022/09/02 08:20:37;;;;;;;131.63;125.20;;;;;;;13.99;79.95;98602.31;5017394;28;20640;-63
2022/09/02 08:23:06;;;;;;;134.13;127.43;;;;;;;13.97;84.81;98601.59;5023800;28;20038;-58
2022/09/02 08:25:34;;;;;;;140.27;132.93;;;;;;;13.67;81.49;98600.19;5023361;28;20068;-58
2022/09/02 08:28:01;;;;;;;141.40;133.85;;;;;;;13.84;81.43;98597.22;5006164;28;20115;-63
2022/09/02 08:30:30;;;;;;;152.88;143.98;;;;;;;13.99;80.25;98604.13;5021574;28;20502;-58
2022/09/02 08:32:58;;;;;;;134.30;127.28;;;;;;;14.05;80.37;98601.91;5022425;28;20499;-60
2022/09/02 08:35:26;;;;;;;124.25;117.93;;;;;;;14.21;81.38;98599.91;5005116;28;20049;-58
2022/09/02 08:37:54;;;;;;;121.05;114.95;;;;;;;14.45;77.00;98595.56;5036124;28;20073;-59
2022/09/02 08:40:24;;;;;;;110.22;104.65;;;;;;;14.47;75.08;98598.91;5010052;28;20051;-59
2022/09/02 08:42:53;;;;;;;112.38;106.63;;;;;;;14.38;72.87;98588.13;5016489;28;20095;-58
2022/09/02 08:45:25;;;;;;;113.57;107.80;;;;;;;14.49;76.33;98588.22;5019399;28;20042;-58
2022/09/02 08:48:04;;;;;;;126.25;119.03;;;;;;;14.30;75.87;98594.00;5018486;28;20124;-59
2022/09/02 08:50:32;;;;;;;112.80;106.95;;;;;;;14.47;71.74;98583.03;5020928;28;20523;-66
2022/09/02 08:53:09;;;;;;;117.30;111.10;;;;;;;14.89;75.10;98586.19;5023675;28;20060;-60
2022/09/02 08:55:46;;;;;;;126.67;118.70;;;;;;;15.17;70.40;98583.25;5025359;28;20363;-61
2022/09/02 08:58:17;;;;;;;133.87;125.27;;;;;;;15.23;69.76;98575.69;5020218;28;20363;-61
2022/09/02 09:00:54;;;;;;;128.13;119.60;;;;;;;15.30;67.70;98574.28;5023867;28;20287;-62
2022/09/02 09:03:28;;;;;;;138.37;127.60;;;;;;;15.61;68.29;98572.81;5023311;28;20311;-66
2022/09/02 09:06:06;;;;;;;129.03;120.13;;;;;;;15.11;65.66;98583.66;5025237;28;20284;-63
2022/09/02 09:08:44;;;;;;;120.70;113.30;;;;;;;14.98;65.50;98578.41;5025476;28;20273;-63
2022/09/02 09:11:19;;;;;;;119.40;112.10;;;;;;;15.27;68.54;98565.72;5019831;28;20280;-63
2022/09/02 09:14:12;;;;;;;113.33;107.00;;;;;;;15.07;66.16;98572.47;5022968;28;20284;-63
2022/09/02 09:16:43;;;;;;;100.43;95.15;;;;;;;14.99;65.73;98573.97;5039743;28;20310;-63
2022/09/02 09:19:15;;;;;;;96.43;91.33;;;;;;;15.13;64.75;98561.44;5026218;28;20048;-64
2022/09/02 09:21:44;;;;;;;106.70;100.88;;;;;;;15.28;64.26;98565.63;5022300;28;20697;-63
2022/09/02 09:24:25;;;;;;;105.27;99.53;;;;;;;15.82;62.24;98560.59;5013474;28;20038;-63
2022/09/02 09:26:54;;;;;;;111.10;104.67;;;;;;;16.20;63.22;98558.47;5009352;28;20290;-67
2022/09/02 09:29:21;;;;;;;110.23;103.97;;;;;;;15.78;61.34;98557.31;5011791;28;20276;-69
2022/09/02 09:31:57;;;;;;;104.73;99.03;;;;;;;15.94;62.62;98554.31;5011502;28;20336;-68
2022/09/02 09:34:58;;;;;;;103.17;97.70;;;;;;;16.28;63.98;98554.25;5008914;28;20372;-68
2022/09/02 09:37:32;;;;;;;97.50;92.30;;;;;;;16.97;62.16;98553.91;5010617;28;20281;-69
2022/09/02 09:39:59;;;;;;;101.60;95.87;;;;;;;15.53;61.82;98560.13;5010506;28;21178;-69
2022/09/02 09:42:36;;;;;;;86.03;81.47;;;;;;;15.25;63.74;98552.56;5011223;28;20285;-68
2022/09/02 09:45:20;;;;;;;72.00;68.30;;;;;;;15.47;63.66;98551.78;5010414;28;20794;-68
2022/09/02 09:48:15;;;;;;;80.50;75.93;;;;;;;15.53;62.56;98544.22;5010801;28;20281;-68
2022/09/02 09:50:45;;;;;;;49.40;47.00;;;;;;;15.05;64.44;98550.50;5009873;28;20347;-68
2022/09/02 09:53:18;;;;;;;23.50;22.43;;;;;;;14.97;64.13;98542.28;5010546;28;20307;-68
2022/09/02 09:55:54;;;;;;;7.73;7.43;;;;;;;15.15;64.25;98545.41;5010002;28;20656;-68
2022/09/02 09:58:24;;;;;;;7.87;7.57;;;;;;;15.15;62.94;98548.91;5010611;28;20386;-68
2022/09/02 10:00:59;;;;;;;7.07;6.80;;;;;;;15.41;63.59;98549.59;5010809;28;20416;-69
2022/09/02 10:03:30;;;;;;;8.33;8.00;;;;;;;15.74;63.92;98544.38;5006871;28;20120;-68
2022/09/02 10:06:16;;;;;;;7.13;6.87;;;;;;;15.50;59.49;98548.91;5010929;28;20049;-68
2022/09/02 10:08:51;;;;;;;5.57;5.37;;;;;;;15.39;59.09;98547.09;5009437;28;20137;-68
2022/09/02 10:11:22;;;;;;;4.77;4.60;;;;;;;15.58;61.08;98543.88;5010910;28;20052;-69
2022/09/02 10:13:50;;;;;;;22.77;21.53;;;;;;;15.88;60.68;98534.41;5011134;28;20074;-69
2022/09/02 10:16:34;;;;;;;12.03;11.53;;;;;;;15.49;58.48;98539.28;5009243;28;20289;-60
2022/09/02 10:19:10;;;;;;;7.77;7.47;;;;;;;16.02;60.42;98528.03;5009991;28;20046;-61
2022/09/02 10:21:54;;;;;;;7.60;7.30;;;;;;;16.07;58.43;98532.03;5013501;28;20052;-60
2022/09/02 10:24:37;;;;;;;5.07;4.87;;;;;;;15.98;59.67;98535.41;5028355;28;20175;-60
2022/09/02 10:27:09;;;;;;;7.63;7.33;;;;;;;15.81;61.62;98527.88;5027103;28;20049;-60
2022/09/02 10:29:46;;;;;;;;;;;;;;;15.76;58.59;98527.41;5021002;28;20068;-60
2022/09/02 10:32:43;;;;;;;6.67;6.43;;;;;;;15.89;59.09;98527.31;5015069;28;20277;-60
2022/09/02 10:35:18;;;;;;;4.70;4.53;;;;;;;15.92;60.09;98524.38;5022757;28;20481;-61
2022/09/02 10:38:00;;;;;;;5.20;5.00;;;;;;;15.61;57.97;98527.72;5021480;28;20136;-61
2022/09/02 10:40:36;;;;;;;2.47;2.38;;;;;;;15.63;58.48;98525.78;5015703;28;20742;-61
2022/09/02 10:43:06;;;;;;;4.40;4.23;;;;;;;15.57;58.07;98526.28;5012103;28;20132;-61
2022/09/02 10:45:37;;;;;;;3.90;3.80;;;;;;;15.69;58.10;98527.97;5004358;28;20068;-60
2022/09/02 10:48:32;;;;;;;3.70;3.60;;;;;;;16.13;59.91;98522.75;5016875;28;20050;-63
2022/09/02 10:51:06;;;;;;;4.07;3.90;;;;;;;15.58;60.61;98526.16;5028982;28;20100;-60
2022/09/02 10:53:50;;;;;;;4.20;4.03;;;;;;;15.50;61.17;98523.25;5023900;28;20045;-61
2022/09/02 10:56:21;;;;;;;3.28;3.17;;;;;;;15.96;59.00;98531.13;5019055;28;20041;-60
2022/09/02 10:58:56;;;;;;;2.03;2.00;;;;;;;15.66;58.56;98515.81;5000735;28;20132;-61
2022/09/02 11:01:25;;;;;;;;;;;;;;;16.34;58.59;98521.88;5033137;28;20038;-60
2022/09/02 11:04:03;;;;;;;0.00;0.00;;;;;;;17.17;60.83;98512.38;5023811;28;20424;-60
2022/09/02 11:06:32;;;;;;;;;;;;;;;17.45;59.76;98517.09;4997347;28;20049;-60
2022/09/02 11:09:06;;;;;;;;;;;;;;;16.57;59.80;98517.41;5003073;28;19921;-60
2022/09/02 11:11:41;;;;;;;;;;;;;;;16.12;58.19;98516.56;5015113;28;20300;-60
2022/09/02 11:14:14;;;;;;;;;;;;;;;16.00;58.81;98514.03;5017596;28;19948;-60
2022/09/02 11:16:46;;;;;;;;;;;;;;;16.24;60.32;98512.97;5024934;28;19976;-61
2022/09/02 11:19:16;;;;;;;;;;;;;;;15.93;60.17;98518.97;5013074;28;19924;-61
2022/09/02 11:21:49;;;;;;;;;;;;;;;16.03;60.34;98509.31;5009819;28;19921;-61
2022/09/02 11:24:20;;;;;;;;;;;;;;;15.45;61.38;98513.97;5004204;28;20450;-61
2022/09/02 11:26:53;;;;;;;;;;;;;;;15.83;58.83;98507.41;5003611;28;20366;-61
2022/09/02 11:29:22;;;;;;;;;;;;;;;16.21;55.77;98501.75;4998260;28;19956;-61
2022/09/02 11:31:57;;;;;;;;;;;;;;;16.90;54.57;98496.03;4997335;28;20677;-60
2022/09/02 11:34:39;;;;;;;;;;;;;;;16.95;55.29;98488.56;5001723;28;20132;-59
2022/09/02 11:37:09;;;;;;;;;;;;;;;16.84;55.97;98481.44;5006803;28;19926;-59
2022/09/02 11:39:42;;;;;;;;;;;;;;;17.03;56.70;98494.94;5007755;28;19949;-60
2022/09/02 11:42:14;;;;;;;;;;;;;;;17.26;55.36;98493.03;4992002;28;19926;-60
2022/09/02 11:44:57;;;;;;;;;;;;;;;16.06;55.21;98497.66;5004628;28;19936;-60
2022/09/02 11:47:41;;;;;;;;;;;;;;;16.10;53.83;98494.63;5005633;28;20028;-61
2022/09/02 11:50:25;;;;;;;;;;;;;;;16.52;54.38;98490.38;5008364;28;19971;-62
2022/09/02 11:53:12;;;;;;;;;;;;;;;16.39;55.13;98492.31;5014066;28;19930;-60
2022/09/02 11:55:42;;;;;;;;;;;;;;;16.63;55.94;98491.16;5015158;28;20415;-61
2022/09/02 11:58:29;;;;;;;;;;;;;;;16.97;56.49;98491.94;5015983;28;19929;-61
2022/09/02 12:01:04;;;;;;;;;;;;;;;16.83;56.20;98486.88;5017637;28;19926;-61
2022/09/02 12:03:33;;;;;;;;;;;;;;;16.30;58.10;98493.06;5015762;28;20013;-62
2022/09/02 12:06:19;;;;;;;;;;;;;;;15.92;59.02;98490.75;5027128;28;20471;-61
2022/09/02 12:09:04;;;;;;;;;;;;;;;15.98;58.79;98495.59;5019529;28;19926;-61
2022/09/02 12:11:41;;;;;;;;;;;;;;;16.25;58.20;98490.75;5016883;28;20472;-64
2022/09/02 12:14:12;;;;;;;;;;;;;;;15.90;59.71;98494.47;5022287;28;20289;-65